Seattle, WA (98125)

6:52 PM PST on February 13, 2016 (GMT -0800)
Lake City | | Change Station
CLOSE
Current Station
Personal Weather Station
Location: Seattle, WA
Elevation: 213 ft
Nearby Weather Stations

Elev 213 ft 47.71 °N, 122.30 °W | Updated 18 seconds ago

Overcast
Overcast
44.3 °F
Feels Like 44 °F
N
0.0
Wind Variable Wind from North
Gusts 0.0 mph

Today
High -- | Low -- °F
--% Chance of Precip.
Yesterday
High -- | Low -- °F
Precip. -- in
Pressure 30.10 in
Visibility 10.0 miles
Clouds Few 1500 ft
Mostly Cloudy 3000 ft
Overcast 4700 ft
Windchill 44 °F
Dew Point 44 °F
Humidity 97%
Rainfall in
Snow Depth Not available.
7:18 AM 5:28 PM
Waxing Crescent, 36% visible
METAR KBFI 140153Z 14009KT 10SM -RA FEW015 BKN030 OVC047 08/07 A3010 RMK AO2 SLP192 P0002 T00780072
Pressure 30.10 in
Visibility 10.0 miles
Clouds Few 1500 ft
Mostly Cloudy 3000 ft
Overcast 4700 ft
Windchill 44 °F
Dew Point 44 °F
Humidity 97%
Rainfall in
Snow Depth Not available.
7:18 AM 5:28 PM
Waxing Crescent, 36% visible
METAR KBFI 140153Z 14009KT 10SM -RA FEW015 BKN030 OVC047 08/07 A3010 RMK AO2 SLP192 P0002 T00780072

10-Day Weather Forecast

Almanac

Astronomy

Feb. 13, 2016 Rise Set
Actual Time
Civil Twilight
Nautical Twilight
Astronomical Twilight
Moon
Length of Visible Light
Length of Day
Tomorrow will be .
, % of the Moon is Illuminated

Today's Extremes

State Highs State Lows

Community

WunderPhotos

Upload Photos

1,892,731 photos uploaded!

WunderBlog® & News

Nearby

Air Quality

  Air Quality AQ Index Pollutant
Not available.

Snow Depth

Station Depth Elevation

Earthquake Activity

City Distance Mag. Time & Date
Minimum magnitude displayed is 2.5.

Coastal Water Temperatures

Place Temperature

Stations

Nearby Weather Stations

Station Location Temp. Windchill Dew Point Humidity Wind Precip. Elev Updated Type
                   

Watches & Warnings

There are currently no watches in effect.